Vilna, Canada
Current Conditions -  °F | °C
As of 6:00 PM on Wednesday 26 Nov 2014 (Local Time) from CYOD Reporting Station
Snow Showers Snow Showers  
Wind Chill:   Ceiling: 1000
Heat Index:   Visibility: 15mi
Dew Point: -2°   Wind: 0mph
Humidity: 78%   Direction: NA
Pressure: 30.21"   Gusts: NA
Location:  54.12°N, 111.92°W
Report Text: CYOD 270100Z 00000KT 15SM -SHSN OVC010 M16/M19 A3021 RMK SC8SLP282
Loading
Personal Weather Stations






























Interactive Weather Map New forecast layout! Learn more

10-Day Weather Forecast

Advertisements
Track Severe Weather on mobile